sensor_id;sensor_type;location;lat;lon;timestamp;temperature;humidity
59128;DHT22;44912;52.754;5.994;2023-10-13T00:01:24;16.80;99.90
59128;DHT22;44912;52.754;5.994;2023-10-13T00:03:50;16.80;99.90
59128;DHT22;44912;52.754;5.994;2023-10-13T00:06:19;16.70;99.90
59128;DHT22;44912;52.754;5.994;2023-10-13T00:08:45;16.70;99.90
59128;DHT22;44912;52.754;5.994;2023-10-13T00:11:14;16.70;99.90
59128;DHT22;44912;52.754;5.994;2023-10-13T00:13:40;16.70;99.90
59128;DHT22;44912;52.754;5.994;2023-10-13T00:16:08;16.80;99.90
59128;DHT22;44912;52.754;5.994;2023-10-13T00:18:35;16.70;99.90
59128;DHT22;44912;52.754;5.994;2023-10-13T00:21:07;16.80;99.90
59128;DHT22;44912;52.754;5.994;2023-10-13T00:23:42;16.80;99.90
59128;DHT22;44912;52.754;5.994;2023-10-13T00:26:21;16.80;99.90
59128;DHT22;44912;52.754;5.994;2023-10-13T00:28:52;16.80;99.90
59128;DHT22;44912;52.754;5.994;2023-10-13T00:31:25;16.80;99.90
59128;DHT22;44912;52.754;5.994;2023-10-13T00:33:54;16.70;99.90
59128;DHT22;44912;52.754;5.994;2023-10-13T00:36:21;16.70;99.90
59128;DHT22;44912;52.754;5.994;2023-10-13T00:38:47;16.70;99.90
59128;DHT22;44912;52.754;5.994;2023-10-13T00:41:14;16.70;99.90
59128;DHT22;44912;52.754;5.994;2023-10-13T00:43:47;16.70;99.90
59128;DHT22;44912;52.754;5.994;2023-10-13T00:46:34;16.70;99.90
59128;DHT22;44912;52.754;5.994;2023-10-13T00:49:01;16.70;99.90
59128;DHT22;44912;52.754;5.994;2023-10-13T00:51:29;16.80;99.90
59128;DHT22;44912;52.754;5.994;2023-10-13T00:54:04;16.80;99.90
59128;DHT22;44912;52.754;5.994;2023-10-13T00:56:33;16.70;99.90
59128;DHT22;44912;52.754;5.994;2023-10-13T00:58:59;16.80;99.90
59128;DHT22;44912;52.754;5.994;2023-10-13T01:01:30;16.70;99.90
59128;DHT22;44912;52.754;5.994;2023-10-13T01:03:58;16.80;99.90
59128;DHT22;44912;52.754;5.994;2023-10-13T01:06:28;16.80;99.90
59128;DHT22;44912;52.754;5.994;2023-10-13T01:08:58;16.70;99.90
59128;DHT22;44912;52.754;5.994;2023-10-13T01:11:25;16.80;99.90
59128;DHT22;44912;52.754;5.994;2023-10-13T01:13:52;16.70;99.90
59128;DHT22;44912;52.754;5.994;2023-10-13T01:16:19;16.70;99.90
59128;DHT22;44912;52.754;5.994;2023-10-13T01:18:52;16.80;99.90
59128;DHT22;44912;52.754;5.994;2023-10-13T01:21:17;16.80;99.90
59128;DHT22;44912;52.754;5.994;2023-10-13T01:23:46;16.70;99.90
59128;DHT22;44912;52.754;5.994;2023-10-13T01:26:13;16.80;99.90
59128;DHT22;44912;52.754;5.994;2023-10-13T01:28:43;16.90;99.90
59128;DHT22;44912;52.754;5.994;2023-10-13T01:31:12;16.80;99.90
59128;DHT22;44912;52.754;5.994;2023-10-13T01:33:38;16.80;99.90
59128;DHT22;44912;52.754;5.994;2023-10-13T01:36:04;16.70;99.90
59128;DHT22;44912;52.754;5.994;2023-10-13T01:38:35;16.80;99.90
59128;DHT22;44912;52.754;5.994;2023-10-13T01:41:06;16.70;99.90
59128;DHT22;44912;52.754;5.994;2023-10-13T01:43:34;16.70;99.90
59128;DHT22;44912;52.754;5.994;2023-10-13T01:46:00;16.80;99.90
59128;DHT22;44912;52.754;5.994;2023-10-13T01:48:25;16.80;99.90
59128;DHT22;44912;52.754;5.994;2023-10-13T01:50:51;16.70;99.90
59128;DHT22;44912;52.754;5.994;2023-10-13T01:53:21;16.80;99.90
59128;DHT22;44912;52.754;5.994;2023-10-13T01:55:48;16.90;99.90
59128;DHT22;44912;52.754;5.994;2023-10-13T01:58:15;16.70;99.90
59128;DHT22;44912;52.754;5.994;2023-10-13T02:00:41;16.70;99.90
59128;DHT22;44912;52.754;5.994;2023-10-13T02:03:08;16.70;99.90
59128;DHT22;44912;52.754;5.994;2023-10-13T02:05:40;16.70;99.90
59128;DHT22;44912;52.754;5.994;2023-10-13T02:08:09;16.70;99.90
59128;DHT22;44912;52.754;5.994;2023-10-13T02:10:36;16.70;99.90
59128;DHT22;44912;52.754;5.994;2023-10-13T02:13:11;16.80;99.90
59128;DHT22;44912;52.754;5.994;2023-10-13T02:15:40;16.70;99.90
59128;DHT22;44912;52.754;5.994;2023-10-13T02:18:08;16.70;99.90
59128;DHT22;44912;52.754;5.994;2023-10-13T02:20:34;16.70;99.90
59128;DHT22;44912;52.754;5.994;2023-10-13T02:23:07;16.80;99.90
59128;DHT22;44912;52.754;5.994;2023-10-13T02:25:36;16.70;99.90
59128;DHT22;44912;52.754;5.994;2023-10-13T02:28:08;16.80;99.90
59128;DHT22;44912;52.754;5.994;2023-10-13T02:30:38;16.70;99.90
59128;DHT22;44912;52.754;5.994;2023-10-13T02:33:04;16.80;99.90
59128;DHT22;44912;52.754;5.994;2023-10-13T02:35:32;16.60;99.90
59128;DHT22;44912;52.754;5.994;2023-10-13T02:38:07;16.70;99.90
59128;DHT22;44912;52.754;5.994;2023-10-13T02:40:37;16.70;99.90
59128;DHT22;44912;52.754;5.994;2023-10-13T02:43:03;16.70;99.90
59128;DHT22;44912;52.754;5.994;2023-10-13T02:45:30;16.70;99.90
59128;DHT22;44912;52.754;5.994;2023-10-13T02:47:56;16.50;99.90
59128;DHT22;44912;52.754;5.994;2023-10-13T02:50:35;16.70;99.90
59128;DHT22;44912;52.754;5.994;2023-10-13T02:53:04;16.70;99.90
59128;DHT22;44912;52.754;5.994;2023-10-13T02:55:38;16.60;99.90
59128;DHT22;44912;52.754;5.994;2023-10-13T02:58:04;16.60;99.90
59128;DHT22;44912;52.754;5.994;2023-10-13T03:00:30;16.80;99.90
59128;DHT22;44912;52.754;5.994;2023-10-13T03:02:57;16.70;99.90
59128;DHT22;44912;52.754;5.994;2023-10-13T03:05:26;16.80;99.90
59128;DHT22;44912;52.754;5.994;2023-10-13T03:07:55;16.80;99.90
59128;DHT22;44912;52.754;5.994;2023-10-13T03:10:21;16.80;99.90
59128;DHT22;44912;52.754;5.994;2023-10-13T03:12:46;16.70;99.90
59128;DHT22;44912;52.754;5.994;2023-10-13T03:15:13;16.80;99.90
59128;DHT22;44912;52.754;5.994;2023-10-13T03:17:39;16.80;99.90
59128;DHT22;44912;52.754;5.994;2023-10-13T03:20:13;16.70;99.90
59128;DHT22;44912;52.754;5.994;2023-10-13T03:22:40;16.80;99.90
59128;DHT22;44912;52.754;5.994;2023-10-13T03:25:10;16.80;99.90
59128;DHT22;44912;52.754;5.994;2023-10-13T03:27:43;16.70;99.90
59128;DHT22;44912;52.754;5.994;2023-10-13T03:30:17;16.70;99.90
59128;DHT22;44912;52.754;5.994;2023-10-13T03:32:43;16.70;99.90
59128;DHT22;44912;52.754;5.994;2023-10-13T03:35:10;16.70;99.90
59128;DHT22;44912;52.754;5.994;2023-10-13T03:37:42;16.60;99.90
59128;DHT22;44912;52.754;5.994;2023-10-13T03:40:08;16.80;99.90
59128;DHT22;44912;52.754;5.994;2023-10-13T03:42:58;16.70;99.90
59128;DHT22;44912;52.754;5.994;2023-10-13T03:48:05;16.70;99.90
59128;DHT22;44912;52.754;5.994;2023-10-13T03:50:35;16.70;99.90
59128;DHT22;44912;52.754;5.994;2023-10-13T03:53:01;16.70;99.90
59128;DHT22;44912;52.754;5.994;2023-10-13T03:55:27;16.60;99.90
59128;DHT22;44912;52.754;5.994;2023-10-13T03:57:53;16.70;99.90
59128;DHT22;44912;52.754;5.994;2023-10-13T04:00:22;16.60;99.90
59128;DHT22;44912;52.754;5.994;2023-10-13T04:02:52;16.60;99.90
59128;DHT22;44912;52.754;5.994;2023-10-13T04:05:36;16.70;99.90
59128;DHT22;44912;52.754;5.994;2023-10-13T04:08:06;16.60;99.90
59128;DHT22;44912;52.754;5.994;2023-10-13T04:10:51;16.50;99.90
59128;DHT22;44912;52.754;5.994;2023-10-13T04:13:17;16.60;99.90
59128;DHT22;44912;52.754;5.994;2023-10-13T04:16:01;16.60;99.90
59128;DHT22;44912;52.754;5.994;2023-10-13T04:18:45;16.70;99.90
59128;DHT22;44912;52.754;5.994;2023-10-13T04:21:23;16.70;99.90
59128;DHT22;44912;52.754;5.994;2023-10-13T04:24:07;16.60;99.90
59128;DHT22;44912;52.754;5.994;2023-10-13T04:26:52;16.60;99.90
59128;DHT22;44912;52.754;5.994;2023-10-13T04:29:36;16.50;99.90
59128;DHT22;44912;52.754;5.994;2023-10-13T04:32:31;16.70;99.90
59128;DHT22;44912;52.754;5.994;2023-10-13T04:35:04;16.70;99.90
59128;DHT22;44912;52.754;5.994;2023-10-13T04:37:44;16.50;99.90
59128;DHT22;44912;52.754;5.994;2023-10-13T04:40:40;16.60;99.90
59128;DHT22;44912;52.754;5.994;2023-10-13T04:43:15;16.60;99.90
59128;DHT22;44912;52.754;5.994;2023-10-13T04:45:59;16.60;99.90
59128;DHT22;44912;52.754;5.994;2023-10-13T04:48:39;16.60;99.90
59128;DHT22;44912;52.754;5.994;2023-10-13T04:51:05;16.60;99.90
59128;DHT22;44912;52.754;5.994;2023-10-13T04:53:59;16.60;99.90
59128;DHT22;44912;52.754;5.994;2023-10-13T04:56:25;16.60;99.90
59128;DHT22;44912;52.754;5.994;2023-10-13T04:59:06;16.60;99.90
59128;DHT22;44912;52.754;5.994;2023-10-13T05:01:55;16.60;99.90
59128;DHT22;44912;52.754;5.994;2023-10-13T05:04:40;16.50;99.90
59128;DHT22;44912;52.754;5.994;2023-10-13T05:07:24;16.50;99.90
59128;DHT22;44912;52.754;5.994;2023-10-13T05:10:08;16.60;99.90
59128;DHT22;44912;52.754;5.994;2023-10-13T05:12:53;16.50;99.90
59128;DHT22;44912;52.754;5.994;2023-10-13T05:15:50;16.50;99.90
59128;DHT22;44912;52.754;5.994;2023-10-13T05:18:34;16.40;99.90
59128;DHT22;44912;52.754;5.994;2023-10-13T05:21:19;16.50;99.90
59128;DHT22;44912;52.754;5.994;2023-10-13T05:24:03;16.40;99.90
59128;DHT22;44912;52.754;5.994;2023-10-13T05:26:47;16.50;99.90
59128;DHT22;44912;52.754;5.994;2023-10-13T05:29:32;16.50;99.90
59128;DHT22;44912;52.754;5.994;2023-10-13T05:32:16;16.40;99.90
59128;DHT22;44912;52.754;5.994;2023-10-13T05:35:00;16.40;99.90
59128;DHT22;44912;52.754;5.994;2023-10-13T05:37:44;16.50;99.90
59128;DHT22;44912;52.754;5.994;2023-10-13T05:40:29;16.50;99.90
59128;DHT22;44912;52.754;5.994;2023-10-13T05:43:13;16.40;99.90
59128;DHT22;44912;52.754;5.994;2023-10-13T05:46:06;16.40;99.90
59128;DHT22;44912;52.754;5.994;2023-10-13T05:48:50;16.50;99.90
59128;DHT22;44912;52.754;5.994;2023-10-13T05:51:25;16.40;99.90
59128;DHT22;44912;52.754;5.994;2023-10-13T05:53:58;16.40;99.90
59128;DHT22;44912;52.754;5.994;2023-10-13T05:59:29;16.40;99.90
59128;DHT22;44912;52.754;5.994;2023-10-13T06:02:14;16.40;99.90
59128;DHT22;44912;52.754;5.994;2023-10-13T06:05:05;16.40;99.90
59128;DHT22;44912;52.754;5.994;2023-10-13T06:07:50;16.50;99.90
59128;DHT22;44912;52.754;5.994;2023-10-13T06:10:34;16.50;99.90
59128;DHT22;44912;52.754;5.994;2023-10-13T06:13:18;16.50;99.90
59128;DHT22;44912;52.754;5.994;2023-10-13T06:16:07;16.50;99.90
59128;DHT22;44912;52.754;5.994;2023-10-13T06:18:51;16.50;99.90
59128;DHT22;44912;52.754;5.994;2023-10-13T06:21:35;16.60;99.90
59128;DHT22;44912;52.754;5.994;2023-10-13T06:24:19;16.70;99.90
59128;DHT22;44912;52.754;5.994;2023-10-13T06:27:03;16.80;99.90
59128;DHT22;44912;52.754;5.994;2023-10-13T06:29:47;16.90;99.90
59128;DHT22;44912;52.754;5.994;2023-10-13T06:32:13;17.00;99.90
59128;DHT22;44912;52.754;5.994;2023-10-13T06:34:41;16.90;99.90
59128;DHT22;44912;52.754;5.994;2023-10-13T06:37:13;17.00;99.90
59128;DHT22;44912;52.754;5.994;2023-10-13T06:39:49;17.10;99.90
59128;DHT22;44912;52.754;5.994;2023-10-13T06:42:14;17.10;99.90
59128;DHT22;44912;52.754;5.994;2023-10-13T06:44:42;17.00;99.90
59128;DHT22;44912;52.754;5.994;2023-10-13T06:47:10;17.10;99.90
59128;DHT22;44912;52.754;5.994;2023-10-13T06:49:37;17.10;99.90
59128;DHT22;44912;52.754;5.994;2023-10-13T06:52:04;17.00;99.90
59128;DHT22;44912;52.754;5.994;2023-10-13T06:54:34;17.10;99.90
59128;DHT22;44912;52.754;5.994;2023-10-13T06:57:00;17.00;99.90
59128;DHT22;44912;52.754;5.994;2023-10-13T06:59:32;17.00;99.90
59128;DHT22;44912;52.754;5.994;2023-10-13T07:02:00;17.00;99.90
59128;DHT22;44912;52.754;5.994;2023-10-13T07:04:40;17.00;99.90
59128;DHT22;44912;52.754;5.994;2023-10-13T07:07:06;17.00;99.90
59128;DHT22;44912;52.754;5.994;2023-10-13T07:09:36;16.90;99.90
59128;DHT22;44912;52.754;5.994;2023-10-13T07:12:01;17.00;99.90
59128;DHT22;44912;52.754;5.994;2023-10-13T07:14:28;16.90;99.90
59128;DHT22;44912;52.754;5.994;2023-10-13T07:17:01;16.90;99.90
59128;DHT22;44912;52.754;5.994;2023-10-13T07:19:28;17.00;99.90
59128;DHT22;44912;52.754;5.994;2023-10-13T07:21:57;16.90;99.90
59128;DHT22;44912;52.754;5.994;2023-10-13T07:24:46;16.90;99.90
59128;DHT22;44912;52.754;5.994;2023-10-13T07:27:21;16.80;99.90
59128;DHT22;44912;52.754;5.994;2023-10-13T07:29:50;16.90;99.90
59128;DHT22;44912;52.754;5.994;2023-10-13T07:32:22;16.80;99.90
59128;DHT22;44912;52.754;5.994;2023-10-13T07:34:54;16.80;99.90
59128;DHT22;44912;52.754;5.994;2023-10-13T07:37:23;16.90;99.90
59128;DHT22;44912;52.754;5.994;2023-10-13T07:39:53;16.90;99.90
59128;DHT22;44912;52.754;5.994;2023-10-13T07:42:18;16.80;99.90
59128;DHT22;44912;52.754;5.994;2023-10-13T07:44:47;16.90;99.90
59128;DHT22;44912;52.754;5.994;2023-10-13T07:47:12;16.90;99.90
59128;DHT22;44912;52.754;5.994;2023-10-13T07:49:39;16.90;99.90
59128;DHT22;44912;52.754;5.994;2023-10-13T07:52:06;16.90;99.90
59128;DHT22;44912;52.754;5.994;2023-10-13T07:54:48;16.80;99.90
59128;DHT22;44912;52.754;5.994;2023-10-13T07:57:33;16.90;99.90
59128;DHT22;44912;52.754;5.994;2023-10-13T07:59:58;16.90;99.90
59128;DHT22;44912;52.754;5.994;2023-10-13T08:02:34;16.90;99.90
59128;DHT22;44912;52.754;5.994;2023-10-13T08:05:15;16.90;99.90
59128;DHT22;44912;52.754;5.994;2023-10-13T08:07:51;16.90;99.90
59128;DHT22;44912;52.754;5.994;2023-10-13T08:10:17;16.90;99.90
59128;DHT22;44912;52.754;5.994;2023-10-13T08:12:43;16.90;99.90
59128;DHT22;44912;52.754;5.994;2023-10-13T08:15:09;16.90;99.90
59128;DHT22;44912;52.754;5.994;2023-10-13T08:17:46;16.90;99.90
59128;DHT22;44912;52.754;5.994;2023-10-13T08:20:12;16.90;99.90
59128;DHT22;44912;52.754;5.994;2023-10-13T08:22:38;16.90;99.90
59128;DHT22;44912;52.754;5.994;2023-10-13T08:25:04;16.90;99.90
59128;DHT22;44912;52.754;5.994;2023-10-13T08:27:48;16.90;99.90
59128;DHT22;44912;52.754;5.994;2023-10-13T08:30:15;17.00;99.90
59128;DHT22;44912;52.754;5.994;2023-10-13T08:32:55;17.10;99.90
59128;DHT22;44912;52.754;5.994;2023-10-13T08:35:22;17.00;99.90
59128;DHT22;44912;52.754;5.994;2023-10-13T08:37:51;17.10;99.90
59128;DHT22;44912;52.754;5.994;2023-10-13T08:40:16;17.30;99.90
59128;DHT22;44912;52.754;5.994;2023-10-13T08:42:46;17.20;99.90
59128;DHT22;44912;52.754;5.994;2023-10-13T08:45:12;17.30;99.90
59128;DHT22;44912;52.754;5.994;2023-10-13T08:47:57;17.40;99.90
59128;DHT22;44912;52.754;5.994;2023-10-13T08:50:45;17.40;99.90
59128;DHT22;44912;52.754;5.994;2023-10-13T08:53:21;17.40;99.90
59128;DHT22;44912;52.754;5.994;2023-10-13T08:56:01;17.60;99.90
59128;DHT22;44912;52.754;5.994;2023-10-13T08:58:48;17.60;99.90
59128;DHT22;44912;52.754;5.994;2023-10-13T09:01:30;17.70;99.90
59128;DHT22;44912;52.754;5.994;2023-10-13T09:04:00;17.60;99.90
59128;DHT22;44912;52.754;5.994;2023-10-13T09:09:47;17.70;99.90
59128;DHT22;44912;52.754;5.994;2023-10-13T09:12:20;17.70;99.90
59128;DHT22;44912;52.754;5.994;2023-10-13T09:14:51;17.80;99.90
59128;DHT22;44912;52.754;5.994;2023-10-13T09:17:26;17.80;99.90
59128;DHT22;44912;52.754;5.994;2023-10-13T09:19:59;17.80;99.90
59128;DHT22;44912;52.754;5.994;2023-10-13T09:22:37;17.80;99.90
59128;DHT22;44912;52.754;5.994;2023-10-13T09:25:02;17.90;99.90
59128;DHT22;44912;52.754;5.994;2023-10-13T09:27:30;17.90;99.90
59128;DHT22;44912;52.754;5.994;2023-10-13T09:29:58;18.10;99.90
59128;DHT22;44912;52.754;5.994;2023-10-13T09:32:35;18.00;99.90
59128;DHT22;44912;52.754;5.994;2023-10-13T09:35:18;18.10;99.90
59128;DHT22;44912;52.754;5.994;2023-10-13T09:37:44;18.00;99.90
59128;DHT22;44912;52.754;5.994;2023-10-13T09:40:16;18.00;99.90
59128;DHT22;44912;52.754;5.994;2023-10-13T09:43:03;18.10;99.90
59128;DHT22;44912;52.754;5.994;2023-10-13T09:45:34;18.20;99.90
59128;DHT22;44912;52.754;5.994;2023-10-13T09:48:11;18.10;99.90
59128;DHT22;44912;52.754;5.994;2023-10-13T09:50:50;18.20;99.90
59128;DHT22;44912;52.754;5.994;2023-10-13T09:53:15;18.30;99.90
59128;DHT22;44912;52.754;5.994;2023-10-13T09:55:47;18.30;99.90
59128;DHT22;44912;52.754;5.994;2023-10-13T09:58:14;18.40;99.90
59128;DHT22;44912;52.754;5.994;2023-10-13T10:00:51;18.30;99.90
59128;DHT22;44912;52.754;5.994;2023-10-13T10:03:23;18.50;99.90
59128;DHT22;44912;52.754;5.994;2023-10-13T10:05:56;18.50;99.90
59128;DHT22;44912;52.754;5.994;2023-10-13T10:08:29;18.70;99.90
59128;DHT22;44912;52.754;5.994;2023-10-13T10:13:42;18.60;99.90
59128;DHT22;44912;52.754;5.994;2023-10-13T10:16:12;18.60;99.90
59128;DHT22;44912;52.754;5.994;2023-10-13T10:18:41;18.70;99.90
59128;DHT22;44912;52.754;5.994;2023-10-13T10:21:06;19.00;99.90
59128;DHT22;44912;52.754;5.994;2023-10-13T10:23:37;18.90;99.90
59128;DHT22;44912;52.754;5.994;2023-10-13T10:26:15;18.90;99.90
59128;DHT22;44912;52.754;5.994;2023-10-13T10:28:41;18.90;99.90
59128;DHT22;44912;52.754;5.994;2023-10-13T10:31:08;18.90;99.90
59128;DHT22;44912;52.754;5.994;2023-10-13T10:33:38;19.00;99.90
59128;DHT22;44912;52.754;5.994;2023-10-13T10:36:04;19.20;99.90
59128;DHT22;44912;52.754;5.994;2023-10-13T10:38:30;19.20;99.90
59128;DHT22;44912;52.754;5.994;2023-10-13T10:41:00;19.20;99.90
59128;DHT22;44912;52.754;5.994;2023-10-13T10:43:27;19.30;99.90
59128;DHT22;44912;52.754;5.994;2023-10-13T10:45:55;19.20;99.90
59128;DHT22;44912;52.754;5.994;2023-10-13T10:48:25;19.30;99.90
59128;DHT22;44912;52.754;5.994;2023-10-13T10:50:56;19.30;99.90
59128;DHT22;44912;52.754;5.994;2023-10-13T10:53:23;19.20;99.90
59128;DHT22;44912;52.754;5.994;2023-10-13T10:56:07;19.20;99.90
59128;DHT22;44912;52.754;5.994;2023-10-13T10:58:41;19.40;99.90
59128;DHT22;44912;52.754;5.994;2023-10-13T11:01:10;19.50;99.90
59128;DHT22;44912;52.754;5.994;2023-10-13T11:03:37;19.40;99.90
59128;DHT22;44912;52.754;5.994;2023-10-13T11:06:11;19.60;99.90
59128;DHT22;44912;52.754;5.994;2023-10-13T11:08:42;19.60;99.90
59128;DHT22;44912;52.754;5.994;2023-10-13T11:11:09;19.70;99.90
59128;DHT22;44912;52.754;5.994;2023-10-13T11:13:43;19.70;99.90
59128;DHT22;44912;52.754;5.994;2023-10-13T11:16:22;19.70;99.90
59128;DHT22;44912;52.754;5.994;2023-10-13T11:19:03;19.50;99.90
59128;DHT22;44912;52.754;5.994;2023-10-13T11:21:30;19.50;99.90
59128;DHT22;44912;52.754;5.994;2023-10-13T11:23:59;19.50;99.90
59128;DHT22;44912;52.754;5.994;2023-10-13T11:26:34;19.50;99.90
59128;DHT22;44912;52.754;5.994;2023-10-13T11:28:59;19.70;99.90
59128;DHT22;44912;52.754;5.994;2023-10-13T11:31:30;19.70;99.90
59128;DHT22;44912;52.754;5.994;2023-10-13T11:33:55;19.60;99.90
59128;DHT22;44912;52.754;5.994;2023-10-13T11:36:21;19.80;99.90
59128;DHT22;44912;52.754;5.994;2023-10-13T11:38:49;19.90;99.90
59128;DHT22;44912;52.754;5.994;2023-10-13T11:41:16;19.80;99.90
59128;DHT22;44912;52.754;5.994;2023-10-13T11:43:51;19.90;99.90
59128;DHT22;44912;52.754;5.994;2023-10-13T11:46:17;19.80;99.90
59128;DHT22;44912;52.754;5.994;2023-10-13T11:49:03;19.80;99.90
59128;DHT22;44912;52.754;5.994;2023-10-13T11:51:41;19.80;99.90
59128;DHT22;44912;52.754;5.994;2023-10-13T11:54:13;19.80;99.90
59128;DHT22;44912;52.754;5.994;2023-10-13T11:56:41;19.80;99.90
59128;DHT22;44912;52.754;5.994;2023-10-13T11:59:06;19.80;99.90
59128;DHT22;44912;52.754;5.994;2023-10-13T12:01:42;19.90;99.90
59128;DHT22;44912;52.754;5.994;2023-10-13T12:04:26;19.90;99.90
59128;DHT22;44912;52.754;5.994;2023-10-13T12:07:00;19.80;99.90
59128;DHT22;44912;52.754;5.994;2023-10-13T12:09:40;19.80;99.90
59128;DHT22;44912;52.754;5.994;2023-10-13T12:12:29;19.90;99.90
59128;DHT22;44912;52.754;5.994;2023-10-13T12:15:05;19.80;99.90
59128;DHT22;44912;52.754;5.994;2023-10-13T12:17:34;19.70;99.90
59128;DHT22;44912;52.754;5.994;2023-10-13T12:20:00;19.80;99.90
59128;DHT22;44912;52.754;5.994;2023-10-13T12:22:26;19.70;99.90
59128;DHT22;44912;52.754;5.994;2023-10-13T12:25:00;19.70;99.90
59128;DHT22;44912;52.754;5.994;2023-10-13T12:27:30;19.70;99.90
59128;DHT22;44912;52.754;5.994;2023-10-13T12:30:11;19.80;99.90
59128;DHT22;44912;52.754;5.994;2023-10-13T12:32:42;19.70;99.90
59128;DHT22;44912;52.754;5.994;2023-10-13T12:35:19;19.70;99.90
59128;DHT22;44912;52.754;5.994;2023-10-13T12:38:03;19.90;99.90
59128;DHT22;44912;52.754;5.994;2023-10-13T12:40:41;20.00;99.90
59128;DHT22;44912;52.754;5.994;2023-10-13T12:43:25;19.90;99.90
59128;DHT22;44912;52.754;5.994;2023-10-13T12:46:10;20.00;99.90
59128;DHT22;44912;52.754;5.994;2023-10-13T12:48:54;20.00;99.90
59128;DHT22;44912;52.754;5.994;2023-10-13T12:51:38;20.00;99.90
59128;DHT22;44912;52.754;5.994;2023-10-13T12:54:04;20.00;99.90
59128;DHT22;44912;52.754;5.994;2023-10-13T12:56:48;20.00;99.90
59128;DHT22;44912;52.754;5.994;2023-10-13T12:59:14;20.00;99.90
59128;DHT22;44912;52.754;5.994;2023-10-13T13:01:39;19.90;99.90
59128;DHT22;44912;52.754;5.994;2023-10-13T13:04:11;19.90;99.90
59128;DHT22;44912;52.754;5.994;2023-10-13T13:06:43;19.80;99.90
59128;DHT22;44912;52.754;5.994;2023-10-13T13:09:09;19.80;99.90
59128;DHT22;44912;52.754;5.994;2023-10-13T13:11:35;19.80;99.90
59128;DHT22;44912;52.754;5.994;2023-10-13T13:14:05;19.70;99.90
59128;DHT22;44912;52.754;5.994;2023-10-13T13:16:33;19.80;99.90
59128;DHT22;44912;52.754;5.994;2023-10-13T13:18:58;19.70;99.90
59128;DHT22;44912;52.754;5.994;2023-10-13T13:21:24;19.60;99.90
59128;DHT22;44912;52.754;5.994;2023-10-13T13:23:52;19.70;99.90
59128;DHT22;44912;52.754;5.994;2023-10-13T13:26:24;19.70;99.90
59128;DHT22;44912;52.754;5.994;2023-10-13T13:28:49;19.60;99.90
59128;DHT22;44912;52.754;5.994;2023-10-13T13:31:16;19.50;99.90
59128;DHT22;44912;52.754;5.994;2023-10-13T13:33:41;19.50;99.90
59128;DHT22;44912;52.754;5.994;2023-10-13T13:36:11;19.50;99.90
59128;DHT22;44912;52.754;5.994;2023-10-13T13:38:39;19.50;99.90
59128;DHT22;44912;52.754;5.994;2023-10-13T13:41:11;19.50;99.90
59128;DHT22;44912;52.754;5.994;2023-10-13T13:43:40;19.40;99.90
59128;DHT22;44912;52.754;5.994;2023-10-13T13:46:32;19.30;99.90
59128;DHT22;44912;52.754;5.994;2023-10-13T13:48:58;19.30;99.90
59128;DHT22;44912;52.754;5.994;2023-10-13T13:51:25;19.30;99.90
59128;DHT22;44912;52.754;5.994;2023-10-13T13:53:57;19.30;99.90
59128;DHT22;44912;52.754;5.994;2023-10-13T13:56:22;19.30;99.90
59128;DHT22;44912;52.754;5.994;2023-10-13T13:58:51;19.40;99.90
59128;DHT22;44912;52.754;5.994;2023-10-13T14:01:17;19.40;99.90
59128;DHT22;44912;52.754;5.994;2023-10-13T14:03:48;19.30;99.90
59128;DHT22;44912;52.754;5.994;2023-10-13T14:06:24;19.40;99.90
59128;DHT22;44912;52.754;5.994;2023-10-13T14:08:55;19.30;99.90
59128;DHT22;44912;52.754;5.994;2023-10-13T14:11:22;19.40;99.90
59128;DHT22;44912;52.754;5.994;2023-10-13T14:14:09;19.30;99.90
59128;DHT22;44912;52.754;5.994;2023-10-13T14:16:38;19.40;99.90
59128;DHT22;44912;52.754;5.994;2023-10-13T14:19:10;19.30;99.90
59128;DHT22;44912;52.754;5.994;2023-10-13T14:21:35;19.30;99.90
59128;DHT22;44912;52.754;5.994;2023-10-13T14:24:01;19.40;99.90
59128;DHT22;44912;52.754;5.994;2023-10-13T14:26:27;19.30;99.90
59128;DHT22;44912;52.754;5.994;2023-10-13T14:28:52;19.20;99.90
59128;DHT22;44912;52.754;5.994;2023-10-13T14:31:29;19.30;99.90
59128;DHT22;44912;52.754;5.994;2023-10-13T14:33:54;19.20;99.90
59128;DHT22;44912;52.754;5.994;2023-10-13T14:36:20;19.20;99.90
59128;DHT22;44912;52.754;5.994;2023-10-13T14:38:46;19.10;99.90
59128;DHT22;44912;52.754;5.994;2023-10-13T14:41:18;19.20;99.90
59128;DHT22;44912;52.754;5.994;2023-10-13T14:43:44;19.10;99.90
59128;DHT22;44912;52.754;5.994;2023-10-13T14:46:19;19.00;99.90
59128;DHT22;44912;52.754;5.994;2023-10-13T14:48:48;18.90;99.90
59128;DHT22;44912;52.754;5.994;2023-10-13T14:51:14;18.70;99.90
59128;DHT22;44912;52.754;5.994;2023-10-13T14:53:42;18.70;99.90
59128;DHT22;44912;52.754;5.994;2023-10-13T14:56:12;18.60;99.90
59128;DHT22;44912;52.754;5.994;2023-10-13T14:58:41;18.60;99.90
59128;DHT22;44912;52.754;5.994;2023-10-13T15:01:16;18.50;99.90
59128;DHT22;44912;52.754;5.994;2023-10-13T15:03:46;18.50;99.90
59128;DHT22;44912;52.754;5.994;2023-10-13T15:06:18;18.50;99.90
59128;DHT22;44912;52.754;5.994;2023-10-13T15:08:46;18.40;99.90
59128;DHT22;44912;52.754;5.994;2023-10-13T15:11:12;18.40;99.90
59128;DHT22;44912;52.754;5.994;2023-10-13T15:13:40;18.40;99.90
59128;DHT22;44912;52.754;5.994;2023-10-13T15:16:27;18.40;99.90
59128;DHT22;44912;52.754;5.994;2023-10-13T15:18:54;18.40;99.90
59128;DHT22;44912;52.754;5.994;2023-10-13T15:21:23;18.30;99.90
59128;DHT22;44912;52.754;5.994;2023-10-13T15:23:55;18.40;99.90
59128;DHT22;44912;52.754;5.994;2023-10-13T15:26:25;18.40;99.90
59128;DHT22;44912;52.754;5.994;2023-10-13T15:28:50;18.40;99.90
59128;DHT22;44912;52.754;5.994;2023-10-13T15:31:19;18.40;99.90
59128;DHT22;44912;52.754;5.994;2023-10-13T15:34:00;18.40;99.90
59128;DHT22;44912;52.754;5.994;2023-10-13T15:36:31;18.40;99.90
59128;DHT22;44912;52.754;5.994;2023-10-13T15:38:57;18.40;99.90
59128;DHT22;44912;52.754;5.994;2023-10-13T15:41:22;18.30;99.90
59128;DHT22;44912;52.754;5.994;2023-10-13T15:43:48;18.30;99.90
59128;DHT22;44912;52.754;5.994;2023-10-13T15:46:23;18.30;99.90
59128;DHT22;44912;52.754;5.994;2023-10-13T15:48:49;18.20;99.90
59128;DHT22;44912;52.754;5.994;2023-10-13T15:51:15;18.30;99.90
59128;DHT22;44912;52.754;5.994;2023-10-13T15:53:44;18.20;99.90
59128;DHT22;44912;52.754;5.994;2023-10-13T15:56:10;18.20;99.90
59128;DHT22;44912;52.754;5.994;2023-10-13T15:58:40;18.30;99.90
59128;DHT22;44912;52.754;5.994;2023-10-13T16:01:06;18.20;99.90
59128;DHT22;44912;52.754;5.994;2023-10-13T16:03:34;18.30;99.90
59128;DHT22;44912;52.754;5.994;2023-10-13T16:06:03;18.20;99.90
59128;DHT22;44912;52.754;5.994;2023-10-13T16:08:36;18.20;99.90
59128;DHT22;44912;52.754;5.994;2023-10-13T16:11:05;18.30;99.90
59128;DHT22;44912;52.754;5.994;2023-10-13T16:13:36;18.20;99.90